Terminal Aerodrome Forecast
Issued by NWS

Current Version | Previous Version | Text Only | Print | Product List | Glossary On
Versions: 1 2 3 4 5 6 7 8 9 10 11 12
000
FTUS45 KABQ 210529
TAFSAF
TAF
KSAF 210529Z 2106/2206 01006KT P6SM SCT050
     FM210800 14011KT P6SM SCT035 BKN050
     FM211800 16014G24KT P6SM SCT040 BKN060
     FM220100 15014KT P6SM VCSH BKN040=

USA.gov is the U.S. government's official web portal to all federal, state and local government web resources and services.